sensor_id;sensor_type;location;lat;lon;timestamp;P1;durP1;ratioP1;P2;durP2;ratioP2
11970;SDS011;6045;42.682;23.294;2023-11-21T00:02:13;28.97;;;16.37;;
11970;SDS011;6045;42.682;23.294;2023-11-21T00:04:40;34.67;;;16.07;;
11970;SDS011;6045;42.682;23.294;2023-11-21T00:07:08;29.53;;;15.73;;
11970;SDS011;6045;42.682;23.294;2023-11-21T00:09:35;28.20;;;16.40;;
11970;SDS011;6045;42.682;23.294;2023-11-21T00:12:01;28.13;;;16.03;;
11970;SDS011;6045;42.682;23.294;2023-11-21T00:14:29;27.47;;;16.17;;
11970;SDS011;6045;42.682;23.294;2023-11-21T00:16:55;28.53;;;16.03;;
11970;SDS011;6045;42.682;23.294;2023-11-21T00:19:22;26.30;;;15.27;;
11970;SDS011;6045;42.682;23.294;2023-11-21T00:21:49;32.63;;;16.23;;
11970;SDS011;6045;42.682;23.294;2023-11-21T00:24:17;28.80;;;16.60;;
11970;SDS011;6045;42.682;23.294;2023-11-21T00:26:44;28.70;;;16.73;;
11970;SDS011;6045;42.682;23.294;2023-11-21T00:29:13;27.07;;;17.30;;
11970;SDS011;6045;42.682;23.294;2023-11-21T00:31:42;28.47;;;17.07;;
11970;SDS011;6045;42.682;23.294;2023-11-21T00:34:09;33.97;;;17.07;;
11970;SDS011;6045;42.682;23.294;2023-11-21T00:36:37;30.07;;;15.60;;
11970;SDS011;6045;42.682;23.294;2023-11-21T00:39:04;30.87;;;17.10;;
11970;SDS011;6045;42.682;23.294;2023-11-21T00:41:32;33.10;;;18.43;;
11970;SDS011;6045;42.682;23.294;2023-11-21T00:43:59;32.40;;;17.30;;
11970;SDS011;6045;42.682;23.294;2023-11-21T00:46:26;29.47;;;17.77;;
11970;SDS011;6045;42.682;23.294;2023-11-21T00:48:54;31.17;;;17.00;;
11970;SDS011;6045;42.682;23.294;2023-11-21T00:51:21;33.47;;;17.37;;
11970;SDS011;6045;42.682;23.294;2023-11-21T00:53:48;30.67;;;17.00;;
11970;SDS011;6045;42.682;23.294;2023-11-21T00:56:15;33.23;;;17.63;;
11970;SDS011;6045;42.682;23.294;2023-11-21T00:58:46;28.73;;;17.03;;
11970;SDS011;6045;42.682;23.294;2023-11-21T01:01:17;28.63;;;16.60;;
11970;SDS011;6045;42.682;23.294;2023-11-21T01:03:49;31.63;;;16.87;;
11970;SDS011;6045;42.682;23.294;2023-11-21T01:06:16;28.23;;;16.80;;
11970;SDS011;6045;42.682;23.294;2023-11-21T01:08:43;31.20;;;16.90;;
11970;SDS011;6045;42.682;23.294;2023-11-21T01:11:11;26.03;;;17.20;;
11970;SDS011;6045;42.682;23.294;2023-11-21T01:13:38;27.53;;;17.70;;
11970;SDS011;6045;42.682;23.294;2023-11-21T01:16:07;30.93;;;18.33;;
11970;SDS011;6045;42.682;23.294;2023-11-21T01:18:34;32.40;;;18.33;;
11970;SDS011;6045;42.682;23.294;2023-11-21T01:21:01;28.00;;;17.20;;
11970;SDS011;6045;42.682;23.294;2023-11-21T01:23:28;34.97;;;17.23;;
11970;SDS011;6045;42.682;23.294;2023-11-21T01:25:55;28.60;;;18.53;;
11970;SDS011;6045;42.682;23.294;2023-11-21T01:28:22;35.03;;;17.77;;
11970;SDS011;6045;42.682;23.294;2023-11-21T01:30:49;34.87;;;17.60;;
11970;SDS011;6045;42.682;23.294;2023-11-21T01:33:18;33.10;;;18.63;;
11970;SDS011;6045;42.682;23.294;2023-11-21T01:35:45;36.03;;;18.40;;
11970;SDS011;6045;42.682;23.294;2023-11-21T01:38:12;32.57;;;18.27;;
11970;SDS011;6045;42.682;23.294;2023-11-21T01:40:39;34.00;;;19.30;;
11970;SDS011;6045;42.682;23.294;2023-11-21T01:43:06;29.67;;;16.53;;
11970;SDS011;6045;42.682;23.294;2023-11-21T01:45:33;34.67;;;18.80;;
11970;SDS011;6045;42.682;23.294;2023-11-21T01:48:00;30.77;;;17.47;;
11970;SDS011;6045;42.682;23.294;2023-11-21T01:50:29;36.03;;;18.67;;
11970;SDS011;6045;42.682;23.294;2023-11-21T01:52:57;29.53;;;16.77;;
11970;SDS011;6045;42.682;23.294;2023-11-21T01:55:24;31.20;;;17.77;;
11970;SDS011;6045;42.682;23.294;2023-11-21T01:57:52;33.93;;;17.87;;
11970;SDS011;6045;42.682;23.294;2023-11-21T02:00:21;30.53;;;18.47;;
11970;SDS011;6045;42.682;23.294;2023-11-21T02:02:49;32.43;;;17.90;;
11970;SDS011;6045;42.682;23.294;2023-11-21T02:05:16;35.07;;;17.60;;
11970;SDS011;6045;42.682;23.294;2023-11-21T02:07:45;28.53;;;17.33;;
11970;SDS011;6045;42.682;23.294;2023-11-21T02:10:13;31.83;;;17.90;;
11970;SDS011;6045;42.682;23.294;2023-11-21T02:12:41;33.30;;;18.70;;
11970;SDS011;6045;42.682;23.294;2023-11-21T02:15:08;31.03;;;17.07;;
11970;SDS011;6045;42.682;23.294;2023-11-21T02:17:40;30.43;;;18.27;;
11970;SDS011;6045;42.682;23.294;2023-11-21T02:20:09;30.83;;;16.70;;
11970;SDS011;6045;42.682;23.294;2023-11-21T02:22:40;31.20;;;18.03;;
11970;SDS011;6045;42.682;23.294;2023-11-21T02:25:09;30.93;;;18.00;;
11970;SDS011;6045;42.682;23.294;2023-11-21T02:27:36;33.43;;;16.80;;
11970;SDS011;6045;42.682;23.294;2023-11-21T02:30:03;25.13;;;16.87;;
11970;SDS011;6045;42.682;23.294;2023-11-21T02:32:32;26.37;;;15.97;;
11970;SDS011;6045;42.682;23.294;2023-11-21T02:34:59;26.97;;;16.87;;
11970;SDS011;6045;42.682;23.294;2023-11-21T02:37:27;34.23;;;16.53;;
11970;SDS011;6045;42.682;23.294;2023-11-21T02:39:54;30.20;;;16.27;;
11970;SDS011;6045;42.682;23.294;2023-11-21T02:42:22;28.13;;;16.40;;
11970;SDS011;6045;42.682;23.294;2023-11-21T02:44:49;26.57;;;15.53;;
11970;SDS011;6045;42.682;23.294;2023-11-21T02:47:16;26.43;;;15.60;;
11970;SDS011;6045;42.682;23.294;2023-11-21T02:49:43;31.60;;;16.10;;
11970;SDS011;6045;42.682;23.294;2023-11-21T02:52:09;28.37;;;16.20;;
11970;SDS011;6045;42.682;23.294;2023-11-21T02:54:36;29.17;;;15.53;;
11970;SDS011;6045;42.682;23.294;2023-11-21T02:57:03;30.27;;;16.67;;
11970;SDS011;6045;42.682;23.294;2023-11-21T02:59:32;31.63;;;15.87;;
11970;SDS011;6045;42.682;23.294;2023-11-21T03:02:00;29.07;;;16.07;;
11970;SDS011;6045;42.682;23.294;2023-11-21T03:04:26;30.33;;;16.57;;
11970;SDS011;6045;42.682;23.294;2023-11-21T03:06:53;34.50;;;18.23;;
11970;SDS011;6045;42.682;23.294;2023-11-21T03:09:20;27.40;;;15.80;;
11970;SDS011;6045;42.682;23.294;2023-11-21T03:11:47;29.87;;;17.03;;
11970;SDS011;6045;42.682;23.294;2023-11-21T03:14:14;25.43;;;15.70;;
11970;SDS011;6045;42.682;23.294;2023-11-21T03:16:42;31.13;;;15.83;;
11970;SDS011;6045;42.682;23.294;2023-11-21T03:19:10;31.23;;;16.27;;
11970;SDS011;6045;42.682;23.294;2023-11-21T03:21:37;28.90;;;17.77;;
11970;SDS011;6045;42.682;23.294;2023-11-21T03:24:04;33.43;;;17.53;;
11970;SDS011;6045;42.682;23.294;2023-11-21T03:26:32;30.43;;;17.37;;
11970;SDS011;6045;42.682;23.294;2023-11-21T03:28:59;35.20;;;16.63;;
11970;SDS011;6045;42.682;23.294;2023-11-21T03:31:26;30.40;;;16.30;;
11970;SDS011;6045;42.682;23.294;2023-11-21T03:33:54;31.60;;;17.17;;
11970;SDS011;6045;42.682;23.294;2023-11-21T03:36:21;29.40;;;17.27;;
11970;SDS011;6045;42.682;23.294;2023-11-21T03:38:50;26.07;;;16.03;;
11970;SDS011;6045;42.682;23.294;2023-11-21T03:41:17;29.20;;;17.00;;
11970;SDS011;6045;42.682;23.294;2023-11-21T03:43:43;32.73;;;18.40;;
11970;SDS011;6045;42.682;23.294;2023-11-21T03:46:10;28.63;;;16.30;;
11970;SDS011;6045;42.682;23.294;2023-11-21T03:48:38;29.83;;;17.27;;
11970;SDS011;6045;42.682;23.294;2023-11-21T03:51:06;33.73;;;16.40;;
11970;SDS011;6045;42.682;23.294;2023-11-21T03:53:33;33.10;;;15.20;;
11970;SDS011;6045;42.682;23.294;2023-11-21T03:56:01;25.07;;;15.00;;
11970;SDS011;6045;42.682;23.294;2023-11-21T03:58:28;24.27;;;15.33;;
11970;SDS011;6045;42.682;23.294;2023-11-21T04:00:55;31.37;;;15.93;;
11970;SDS011;6045;42.682;23.294;2023-11-21T04:03:22;30.67;;;14.43;;
11970;SDS011;6045;42.682;23.294;2023-11-21T04:05:49;26.67;;;14.17;;
11970;SDS011;6045;42.682;23.294;2023-11-21T04:08:17;29.00;;;14.37;;
11970;SDS011;6045;42.682;23.294;2023-11-21T04:10:44;24.90;;;14.03;;
11970;SDS011;6045;42.682;23.294;2023-11-21T04:13:10;26.90;;;14.00;;
11970;SDS011;6045;42.682;23.294;2023-11-21T04:15:37;26.47;;;13.97;;
11970;SDS011;6045;42.682;23.294;2023-11-21T04:18:04;21.23;;;13.07;;
11970;SDS011;6045;42.682;23.294;2023-11-21T04:20:31;20.50;;;12.13;;
11970;SDS011;6045;42.682;23.294;2023-11-21T04:22:59;25.43;;;12.23;;
11970;SDS011;6045;42.682;23.294;2023-11-21T04:25:28;21.83;;;11.97;;
11970;SDS011;6045;42.682;23.294;2023-11-21T04:27:54;21.27;;;12.47;;
11970;SDS011;6045;42.682;23.294;2023-11-21T04:30:21;22.47;;;12.20;;
11970;SDS011;6045;42.682;23.294;2023-11-21T04:32:48;20.10;;;11.50;;
11970;SDS011;6045;42.682;23.294;2023-11-21T04:35:16;20.47;;;12.23;;
11970;SDS011;6045;42.682;23.294;2023-11-21T04:37:42;19.37;;;11.27;;
11970;SDS011;6045;42.682;23.294;2023-11-21T04:40:10;24.00;;;11.33;;
11970;SDS011;6045;42.682;23.294;2023-11-21T04:42:39;24.93;;;12.60;;
11970;SDS011;6045;42.682;23.294;2023-11-21T04:45:06;19.93;;;10.87;;
11970;SDS011;6045;42.682;23.294;2023-11-21T04:47:36;24.20;;;12.20;;
11970;SDS011;6045;42.682;23.294;2023-11-21T04:50:03;21.33;;;12.07;;
11970;SDS011;6045;42.682;23.294;2023-11-21T04:52:31;17.67;;;11.67;;
11970;SDS011;6045;42.682;23.294;2023-11-21T04:54:58;21.10;;;11.57;;
11970;SDS011;6045;42.682;23.294;2023-11-21T04:57:26;19.53;;;10.43;;
11970;SDS011;6045;42.682;23.294;2023-11-21T04:59:55;18.00;;;10.43;;
11970;SDS011;6045;42.682;23.294;2023-11-21T05:02:21;16.67;;;9.60;;
11970;SDS011;6045;42.682;23.294;2023-11-21T05:04:48;17.23;;;11.10;;
11970;SDS011;6045;42.682;23.294;2023-11-21T05:07:15;19.47;;;12.20;;
11970;SDS011;6045;42.682;23.294;2023-11-21T05:09:43;20.17;;;12.13;;
11970;SDS011;6045;42.682;23.294;2023-11-21T05:12:11;17.43;;;11.37;;
11970;SDS011;6045;42.682;23.294;2023-11-21T05:14:38;21.80;;;12.47;;
11970;SDS011;6045;42.682;23.294;2023-11-21T05:17:08;16.40;;;11.57;;
11970;SDS011;6045;42.682;23.294;2023-11-21T05:19:35;19.90;;;11.63;;
11970;SDS011;6045;42.682;23.294;2023-11-21T05:22:02;18.70;;;11.70;;
11970;SDS011;6045;42.682;23.294;2023-11-21T05:24:30;18.03;;;11.53;;
11970;SDS011;6045;42.682;23.294;2023-11-21T05:26:57;20.53;;;11.57;;
11970;SDS011;6045;42.682;23.294;2023-11-21T05:29:24;19.37;;;11.80;;
11970;SDS011;6045;42.682;23.294;2023-11-21T05:31:52;17.40;;;11.20;;
11970;SDS011;6045;42.682;23.294;2023-11-21T05:34:20;22.43;;;12.10;;
11970;SDS011;6045;42.682;23.294;2023-11-21T05:36:49;20.90;;;11.97;;
11970;SDS011;6045;42.682;23.294;2023-11-21T05:39:16;23.20;;;12.10;;
11970;SDS011;6045;42.682;23.294;2023-11-21T05:41:44;21.37;;;12.37;;
11970;SDS011;6045;42.682;23.294;2023-11-21T05:44:10;20.30;;;12.77;;
11970;SDS011;6045;42.682;23.294;2023-11-21T05:46:39;21.27;;;13.03;;
11970;SDS011;6045;42.682;23.294;2023-11-21T05:49:08;26.17;;;14.27;;
11970;SDS011;6045;42.682;23.294;2023-11-21T05:51:36;23.87;;;15.23;;
11970;SDS011;6045;42.682;23.294;2023-11-21T05:54:03;21.83;;;14.13;;
11970;SDS011;6045;42.682;23.294;2023-11-21T05:56:30;23.83;;;15.27;;
11970;SDS011;6045;42.682;23.294;2023-11-21T05:58:57;29.33;;;16.40;;
11970;SDS011;6045;42.682;23.294;2023-11-21T06:01:24;24.77;;;13.80;;
11970;SDS011;6045;42.682;23.294;2023-11-21T06:03:53;24.97;;;13.77;;
11970;SDS011;6045;42.682;23.294;2023-11-21T06:06:20;22.83;;;13.57;;
11970;SDS011;6045;42.682;23.294;2023-11-21T06:08:51;24.23;;;14.37;;
11970;SDS011;6045;42.682;23.294;2023-11-21T06:11:18;22.43;;;13.67;;
11970;SDS011;6045;42.682;23.294;2023-11-21T06:13:46;25.37;;;14.83;;
11970;SDS011;6045;42.682;23.294;2023-11-21T06:16:13;25.47;;;13.70;;
11970;SDS011;6045;42.682;23.294;2023-11-21T06:18:42;24.13;;;15.53;;
11970;SDS011;6045;42.682;23.294;2023-11-21T06:21:09;21.23;;;14.73;;
11970;SDS011;6045;42.682;23.294;2023-11-21T06:23:36;26.70;;;15.03;;
11970;SDS011;6045;42.682;23.294;2023-11-21T06:26:04;25.90;;;14.87;;
11970;SDS011;6045;42.682;23.294;2023-11-21T06:28:31;26.67;;;14.67;;
11970;SDS011;6045;42.682;23.294;2023-11-21T06:30:58;20.80;;;14.80;;
11970;SDS011;6045;42.682;23.294;2023-11-21T06:33:30;26.30;;;14.97;;
11970;SDS011;6045;42.682;23.294;2023-11-21T06:35:57;26.17;;;14.30;;
11970;SDS011;6045;42.682;23.294;2023-11-21T06:38:24;20.80;;;14.57;;
11970;SDS011;6045;42.682;23.294;2023-11-21T06:40:53;23.13;;;14.17;;
11970;SDS011;6045;42.682;23.294;2023-11-21T06:43:41;27.43;;;15.13;;
11970;SDS011;6045;42.682;23.294;2023-11-21T06:46:11;24.57;;;15.40;;
11970;SDS011;6045;42.682;23.294;2023-11-21T06:48:40;25.40;;;15.73;;
11970;SDS011;6045;42.682;23.294;2023-11-21T06:51:08;21.77;;;15.00;;
11970;SDS011;6045;42.682;23.294;2023-11-21T06:53:35;22.97;;;15.10;;
11970;SDS011;6045;42.682;23.294;2023-11-21T06:56:03;24.57;;;16.33;;
11970;SDS011;6045;42.682;23.294;2023-11-21T06:58:30;28.20;;;16.63;;
11970;SDS011;6045;42.682;23.294;2023-11-21T07:01:00;25.90;;;16.70;;
11970;SDS011;6045;42.682;23.294;2023-11-21T07:03:27;29.40;;;18.17;;
11970;SDS011;6045;42.682;23.294;2023-11-21T07:05:53;29.37;;;19.30;;
11970;SDS011;6045;42.682;23.294;2023-11-21T07:08:20;28.73;;;19.67;;
11970;SDS011;6045;42.682;23.294;2023-11-21T07:10:47;29.07;;;19.37;;
11970;SDS011;6045;42.682;23.294;2023-11-21T07:13:14;31.47;;;20.03;;
11970;SDS011;6045;42.682;23.294;2023-11-21T07:15:41;34.00;;;20.43;;
11970;SDS011;6045;42.682;23.294;2023-11-21T07:18:10;30.17;;;20.17;;
11970;SDS011;6045;42.682;23.294;2023-11-21T07:20:36;36.73;;;19.43;;
11970;SDS011;6045;42.682;23.294;2023-11-21T07:23:03;33.30;;;20.67;;
11970;SDS011;6045;42.682;23.294;2023-11-21T07:25:30;31.23;;;19.60;;
11970;SDS011;6045;42.682;23.294;2023-11-21T07:27:58;29.10;;;19.93;;
11970;SDS011;6045;42.682;23.294;2023-11-21T07:30:31;30.37;;;19.17;;
11970;SDS011;6045;42.682;23.294;2023-11-21T07:32:58;30.03;;;18.30;;
11970;SDS011;6045;42.682;23.294;2023-11-21T07:35:27;26.17;;;17.37;;
11970;SDS011;6045;42.682;23.294;2023-11-21T07:37:54;26.27;;;17.37;;
11970;SDS011;6045;42.682;23.294;2023-11-21T07:40:20;28.20;;;18.80;;
11970;SDS011;6045;42.682;23.294;2023-11-21T07:42:47;30.50;;;17.30;;
11970;SDS011;6045;42.682;23.294;2023-11-21T07:45:15;35.13;;;18.40;;
11970;SDS011;6045;42.682;23.294;2023-11-21T07:47:42;25.60;;;18.53;;
11970;SDS011;6045;42.682;23.294;2023-11-21T07:50:08;24.83;;;17.57;;
11970;SDS011;6045;42.682;23.294;2023-11-21T07:52:37;25.10;;;17.13;;
11970;SDS011;6045;42.682;23.294;2023-11-21T07:55:05;83.47;;;45.93;;
11970;SDS011;6045;42.682;23.294;2023-11-21T07:57:32;37.17;;;24.17;;
11970;SDS011;6045;42.682;23.294;2023-11-21T07:59:59;29.07;;;16.80;;
11970;SDS011;6045;42.682;23.294;2023-11-21T08:02:26;27.40;;;16.43;;
11970;SDS011;6045;42.682;23.294;2023-11-21T08:04:53;21.87;;;14.20;;
11970;SDS011;6045;42.682;23.294;2023-11-21T08:07:21;18.57;;;13.57;;
11970;SDS011;6045;42.682;23.294;2023-11-21T08:09:50;21.60;;;13.93;;
11970;SDS011;6045;42.682;23.294;2023-11-21T08:12:17;17.30;;;13.07;;
11970;SDS011;6045;42.682;23.294;2023-11-21T08:14:45;19.53;;;13.17;;
11970;SDS011;6045;42.682;23.294;2023-11-21T08:17:12;22.00;;;13.77;;
11970;SDS011;6045;42.682;23.294;2023-11-21T08:19:39;20.97;;;12.67;;
11970;SDS011;6045;42.682;23.294;2023-11-21T08:22:06;25.13;;;14.13;;
11970;SDS011;6045;42.682;23.294;2023-11-21T08:24:34;19.13;;;12.30;;
11970;SDS011;6045;42.682;23.294;2023-11-21T08:27:02;19.10;;;11.53;;
11970;SDS011;6045;42.682;23.294;2023-11-21T08:29:29;21.27;;;12.27;;
11970;SDS011;6045;42.682;23.294;2023-11-21T08:31:57;21.30;;;11.63;;
11970;SDS011;6045;42.682;23.294;2023-11-21T08:34:25;20.10;;;11.80;;
11970;SDS011;6045;42.682;23.294;2023-11-21T08:36:52;18.73;;;10.83;;
11970;SDS011;6045;42.682;23.294;2023-11-21T08:39:18;17.97;;;11.13;;
11970;SDS011;6045;42.682;23.294;2023-11-21T08:41:45;20.50;;;11.57;;
11970;SDS011;6045;42.682;23.294;2023-11-21T08:44:30;20.17;;;12.17;;
11970;SDS011;6045;42.682;23.294;2023-11-21T08:46:57;20.73;;;14.00;;
11970;SDS011;6045;42.682;23.294;2023-11-21T08:49:24;24.50;;;16.07;;
11970;SDS011;6045;42.682;23.294;2023-11-21T08:51:52;23.07;;;14.87;;
11970;SDS011;6045;42.682;23.294;2023-11-21T08:54:20;23.80;;;15.63;;
11970;SDS011;6045;42.682;23.294;2023-11-21T08:56:47;25.53;;;15.70;;
11970;SDS011;6045;42.682;23.294;2023-11-21T08:59:15;24.73;;;14.57;;
11970;SDS011;6045;42.682;23.294;2023-11-21T09:01:43;21.70;;;15.00;;
11970;SDS011;6045;42.682;23.294;2023-11-21T09:04:10;21.53;;;13.30;;
11970;SDS011;6045;42.682;23.294;2023-11-21T09:06:37;21.03;;;14.37;;
11970;SDS011;6045;42.682;23.294;2023-11-21T09:09:05;18.57;;;12.50;;
11970;SDS011;6045;42.682;23.294;2023-11-21T09:11:33;19.80;;;12.87;;
11970;SDS011;6045;42.682;23.294;2023-11-21T09:14:01;25.77;;;13.80;;
11970;SDS011;6045;42.682;23.294;2023-11-21T09:16:28;21.93;;;13.37;;
11970;SDS011;6045;42.682;23.294;2023-11-21T09:18:56;24.83;;;14.20;;
11970;SDS011;6045;42.682;23.294;2023-11-21T09:21:24;22.53;;;15.93;;
11970;SDS011;6045;42.682;23.294;2023-11-21T09:23:51;28.87;;;17.20;;
11970;SDS011;6045;42.682;23.294;2023-11-21T09:26:18;26.10;;;18.20;;
11970;SDS011;6045;42.682;23.294;2023-11-21T09:28:45;26.03;;;16.70;;
11970;SDS011;6045;42.682;23.294;2023-11-21T09:31:13;29.00;;;17.13;;
11970;SDS011;6045;42.682;23.294;2023-11-21T09:33:40;25.43;;;16.97;;
11970;SDS011;6045;42.682;23.294;2023-11-21T09:36:12;27.83;;;18.07;;
11970;SDS011;6045;42.682;23.294;2023-11-21T09:38:39;28.27;;;17.43;;
11970;SDS011;6045;42.682;23.294;2023-11-21T09:41:09;20.57;;;12.77;;
11970;SDS011;6045;42.682;23.294;2023-11-21T09:43:44;18.83;;;11.53;;
11970;SDS011;6045;42.682;23.294;2023-11-21T09:46:12;17.30;;;10.20;;
11970;SDS011;6045;42.682;23.294;2023-11-21T09:48:45;17.13;;;11.33;;
11970;SDS011;6045;42.682;23.294;2023-11-21T09:51:19;17.77;;;11.57;;
11970;SDS011;6045;42.682;23.294;2023-11-21T09:53:48;15.00;;;10.67;;
11970;SDS011;6045;42.682;23.294;2023-11-21T09:56:18;19.70;;;12.93;;
11970;SDS011;6045;42.682;23.294;2023-11-21T09:58:50;19.60;;;12.07;;
11970;SDS011;6045;42.682;23.294;2023-11-21T10:01:18;19.83;;;11.87;;
11970;SDS011;6045;42.682;23.294;2023-11-21T10:03:47;17.80;;;12.00;;
11970;SDS011;6045;42.682;23.294;2023-11-21T10:06:14;20.60;;;12.27;;
11970;SDS011;6045;42.682;23.294;2023-11-21T10:08:43;19.37;;;12.40;;
11970;SDS011;6045;42.682;23.294;2023-11-21T10:11:10;17.67;;;11.77;;
11970;SDS011;6045;42.682;23.294;2023-11-21T10:13:39;15.00;;;11.67;;
11970;SDS011;6045;42.682;23.294;2023-11-21T10:16:07;17.13;;;11.07;;
11970;SDS011;6045;42.682;23.294;2023-11-21T10:18:37;20.45;;;12.35;;
11970;SDS011;6045;42.682;23.294;2023-11-21T10:21:05;19.23;;;12.15;;
11970;SDS011;6045;42.682;23.294;2023-11-21T10:23:32;19.52;;;11.32;;
11970;SDS011;6045;42.682;23.294;2023-11-21T10:26:01;17.77;;;11.10;;
11970;SDS011;6045;42.682;23.294;2023-11-21T10:28:28;19.98;;;13.68;;
11970;SDS011;6045;42.682;23.294;2023-11-21T10:30:55;22.70;;;14.50;;
11970;SDS011;6045;42.682;23.294;2023-11-21T10:33:26;21.25;;;15.00;;
11970;SDS011;6045;42.682;23.294;2023-11-21T10:35:54;23.67;;;15.50;;
11970;SDS011;6045;42.682;23.294;2023-11-21T10:38:21;26.50;;;16.00;;
11970;SDS011;6045;42.682;23.294;2023-11-21T10:40:49;21.53;;;15.20;;
11970;SDS011;6045;42.682;23.294;2023-11-21T10:43:18;20.87;;;15.27;;
11970;SDS011;6045;42.682;23.294;2023-11-21T10:45:45;22.70;;;14.23;;
11970;SDS011;6045;42.682;23.294;2023-11-21T10:48:12;20.50;;;14.17;;
11970;SDS011;6045;42.682;23.294;2023-11-21T10:50:41;22.10;;;14.60;;
11970;SDS011;6045;42.682;23.294;2023-11-21T10:53:09;24.80;;;14.13;;
11970;SDS011;6045;42.682;23.294;2023-11-21T10:55:36;20.23;;;14.10;;
11970;SDS011;6045;42.682;23.294;2023-11-21T10:58:22;25.53;;;15.23;;
11970;SDS011;6045;42.682;23.294;2023-11-21T11:00:49;26.87;;;17.43;;
11970;SDS011;6045;42.682;23.294;2023-11-21T11:03:17;24.27;;;15.10;;
11970;SDS011;6045;42.682;23.294;2023-11-21T11:05:44;28.03;;;15.87;;
11970;SDS011;6045;42.682;23.294;2023-11-21T11:08:16;21.43;;;14.47;;
11970;SDS011;6045;42.682;23.294;2023-11-21T11:10:51;24.87;;;14.00;;
11970;SDS011;6045;42.682;23.294;2023-11-21T11:13:18;19.43;;;13.57;;
11970;SDS011;6045;42.682;23.294;2023-11-21T11:15:48;20.73;;;12.10;;
11970;SDS011;6045;42.682;23.294;2023-11-21T11:18:15;16.67;;;12.57;;
11970;SDS011;6045;42.682;23.294;2023-11-21T11:20:42;18.87;;;12.03;;
11970;SDS011;6045;42.682;23.294;2023-11-21T11:23:15;17.23;;;11.70;;
11970;SDS011;6045;42.682;23.294;2023-11-21T11:26:02;19.90;;;12.83;;
11970;SDS011;6045;42.682;23.294;2023-11-21T11:28:43;21.43;;;13.27;;
11970;SDS011;6045;42.682;23.294;2023-11-21T11:31:18;24.27;;;14.47;;
11970;SDS011;6045;42.682;23.294;2023-11-21T11:33:55;26.93;;;13.67;;
11970;SDS011;6045;42.682;23.294;2023-11-21T11:36:27;23.33;;;14.33;;
11970;SDS011;6045;42.682;23.294;2023-11-21T11:39:00;20.67;;;13.67;;
11970;SDS011;6045;42.682;23.294;2023-11-21T11:41:29;22.47;;;16.07;;
11970;SDS011;6045;42.682;23.294;2023-11-21T11:43:59;19.70;;;14.83;;
11970;SDS011;6045;42.682;23.294;2023-11-21T11:46:40;19.77;;;14.27;;
11970;SDS011;6045;42.682;23.294;2023-11-21T11:49:08;24.80;;;15.77;;
11970;SDS011;6045;42.682;23.294;2023-11-21T11:51:35;25.97;;;15.10;;
11970;SDS011;6045;42.682;23.294;2023-11-21T11:54:02;22.73;;;14.37;;
11970;SDS011;6045;42.682;23.294;2023-11-21T11:56:32;22.97;;;14.47;;
11970;SDS011;6045;42.682;23.294;2023-11-21T11:59:02;22.10;;;14.20;;
11970;SDS011;6045;42.682;23.294;2023-11-21T12:01:31;24.10;;;14.50;;
11970;SDS011;6045;42.682;23.294;2023-11-21T12:07:00;24.60;;;14.27;;
11970;SDS011;6045;42.682;23.294;2023-11-21T12:09:29;18.33;;;13.47;;
11970;SDS011;6045;42.682;23.294;2023-11-21T12:11:57;21.30;;;14.27;;
11970;SDS011;6045;42.682;23.294;2023-11-21T12:14:25;21.37;;;14.50;;
11970;SDS011;6045;42.682;23.294;2023-11-21T12:16:52;25.10;;;14.60;;
11970;SDS011;6045;42.682;23.294;2023-11-21T12:19:21;23.53;;;15.07;;
11970;SDS011;6045;42.682;23.294;2023-11-21T12:21:50;21.77;;;14.20;;
11970;SDS011;6045;42.682;23.294;2023-11-21T12:24:17;23.77;;;14.90;;
11970;SDS011;6045;42.682;23.294;2023-11-21T12:26:44;20.90;;;13.80;;
11970;SDS011;6045;42.682;23.294;2023-11-21T12:29:11;23.97;;;14.83;;
11970;SDS011;6045;42.682;23.294;2023-11-21T12:31:38;25.00;;;15.40;;
11970;SDS011;6045;42.682;23.294;2023-11-21T12:34:05;23.13;;;15.60;;
11970;SDS011;6045;42.682;23.294;2023-11-21T12:36:34;28.60;;;16.10;;
11970;SDS011;6045;42.682;23.294;2023-11-21T12:39:03;29.90;;;16.33;;
11970;SDS011;6045;42.682;23.294;2023-11-21T12:41:30;22.87;;;14.87;;
11970;SDS011;6045;42.682;23.294;2023-11-21T12:43:57;24.00;;;14.63;;
11970;SDS011;6045;42.682;23.294;2023-11-21T12:46:24;27.20;;;14.87;;
11970;SDS011;6045;42.682;23.294;2023-11-21T12:48:54;23.73;;;14.37;;
11970;SDS011;6045;42.682;23.294;2023-11-21T12:51:21;20.40;;;14.00;;
11970;SDS011;6045;42.682;23.294;2023-11-21T12:53:48;24.20;;;15.10;;
11970;SDS011;6045;42.682;23.294;2023-11-21T12:56:17;23.80;;;15.67;;
11970;SDS011;6045;42.682;23.294;2023-11-21T12:58:45;22.97;;;14.57;;
11970;SDS011;6045;42.682;23.294;2023-11-21T13:01:13;23.60;;;15.73;;
11970;SDS011;6045;42.682;23.294;2023-11-21T13:03:44;27.90;;;16.27;;
11970;SDS011;6045;42.682;23.294;2023-11-21T13:06:14;23.00;;;16.60;;
11970;SDS011;6045;42.682;23.294;2023-11-21T13:08:41;25.43;;;16.97;;
11970;SDS011;6045;42.682;23.294;2023-11-21T13:11:08;27.23;;;17.87;;
11970;SDS011;6045;42.682;23.294;2023-11-21T13:13:40;31.73;;;19.33;;
11970;SDS011;6045;42.682;23.294;2023-11-21T13:16:07;33.20;;;18.40;;
11970;SDS011;6045;42.682;23.294;2023-11-21T13:18:35;28.77;;;17.10;;
11970;SDS011;6045;42.682;23.294;2023-11-21T13:21:03;32.37;;;17.97;;
11970;SDS011;6045;42.682;23.294;2023-11-21T13:23:35;27.10;;;17.33;;
11970;SDS011;6045;42.682;23.294;2023-11-21T13:26:02;29.03;;;16.87;;
11970;SDS011;6045;42.682;23.294;2023-11-21T13:28:30;28.23;;;16.13;;
11970;SDS011;6045;42.682;23.294;2023-11-21T13:30:59;31.90;;;17.77;;
11970;SDS011;6045;42.682;23.294;2023-11-21T13:33:34;28.63;;;18.23;;
11970;SDS011;6045;42.682;23.294;2023-11-21T13:36:03;36.03;;;19.27;;
11970;SDS011;6045;42.682;23.294;2023-11-21T13:38:33;29.87;;;18.03;;
11970;SDS011;6045;42.682;23.294;2023-11-21T13:41:01;29.33;;;19.20;;
11970;SDS011;6045;42.682;23.294;2023-11-21T13:43:32;26.07;;;18.27;;
11970;SDS011;6045;42.682;23.294;2023-11-21T13:46:01;31.13;;;19.87;;
11970;SDS011;6045;42.682;23.294;2023-11-21T13:48:29;29.73;;;19.60;;
11970;SDS011;6045;42.682;23.294;2023-11-21T13:50:59;34.37;;;20.40;;
11970;SDS011;6045;42.682;23.294;2023-11-21T13:53:35;30.47;;;20.87;;
11970;SDS011;6045;42.682;23.294;2023-11-21T13:56:04;32.20;;;20.90;;
11970;SDS011;6045;42.682;23.294;2023-11-21T13:58:31;36.70;;;20.17;;
11970;SDS011;6045;42.682;23.294;2023-11-21T14:01:11;29.50;;;19.30;;
11970;SDS011;6045;42.682;23.294;2023-11-21T14:03:57;34.07;;;21.07;;
11970;SDS011;6045;42.682;23.294;2023-11-21T14:06:33;31.63;;;19.67;;
11970;SDS011;6045;42.682;23.294;2023-11-21T14:09:09;37.90;;;23.47;;
11970;SDS011;6045;42.682;23.294;2023-11-21T14:11:39;34.30;;;21.80;;
11970;SDS011;6045;42.682;23.294;2023-11-21T14:14:05;33.17;;;21.90;;
11970;SDS011;6045;42.682;23.294;2023-11-21T14:16:34;30.50;;;19.87;;
11970;SDS011;6045;42.682;23.294;2023-11-21T14:19:01;30.70;;;21.03;;
11970;SDS011;6045;42.682;23.294;2023-11-21T14:21:39;31.33;;;20.43;;
11970;SDS011;6045;42.682;23.294;2023-11-21T14:24:08;36.37;;;21.40;;
11970;SDS011;6045;42.682;23.294;2023-11-21T14:26:35;33.13;;;20.97;;
11970;SDS011;6045;42.682;23.294;2023-11-21T14:29:02;34.90;;;21.77;;
11970;SDS011;6045;42.682;23.294;2023-11-21T14:31:30;29.87;;;20.93;;